createdAt,value
2019-03-08T00:00:07.313Z,10.30
2019-03-08T00:01:07.323Z,10.33
2019-03-08T00:02:07.349Z,10.17
2019-03-08T00:03:07.368Z,10.36
2019-03-08T00:04:07.397Z,10.34
2019-03-08T00:05:07.420Z,10.36
2019-03-08T00:06:07.447Z,10.33
2019-03-08T00:07:07.456Z,10.42
2019-03-08T00:08:07.492Z,10.39
2019-03-08T00:09:09.013Z,10.38
2019-03-08T00:10:08.384Z,10.42
2019-03-08T00:11:07.569Z,10.48
2019-03-08T00:12:07.614Z,10.48
2019-03-08T00:13:07.628Z,10.48
2019-03-08T00:14:07.618Z,10.41
2019-03-08T00:15:07.637Z,10.46
2019-03-08T00:16:07.656Z,10.57
2019-03-08T00:17:07.684Z,10.48
2019-03-08T00:18:07.702Z,10.48
2019-03-08T00:19:07.739Z,10.55
2019-03-08T00:20:07.743Z,10.55
2019-03-08T00:21:07.800Z,10.43
2019-03-08T00:22:07.791Z,10.38
2019-03-08T00:23:07.812Z,10.49
2019-03-08T00:24:07.835Z,10.53
2019-03-08T00:25:07.855Z,10.45
2019-03-08T00:26:07.887Z,10.43
2019-03-08T00:27:07.903Z,10.45
2019-03-08T00:28:07.927Z,10.51
2019-03-08T00:29:07.945Z,10.51
2019-03-08T00:30:07.969Z,10.51
2019-03-08T00:31:07.991Z,10.42
2019-03-08T00:32:08.019Z,10.65
2019-03-08T00:33:08.062Z,10.65
2019-03-08T00:34:08.060Z,10.48
2019-03-08T00:35:08.083Z,10.57
2019-03-08T00:36:08.128Z,10.48
2019-03-08T00:37:09.145Z,10.43
2019-03-08T00:38:08.142Z,10.39
2019-03-08T00:39:08.184Z,10.41
2019-03-08T00:40:08.196Z,10.43
2019-03-08T00:41:08.240Z,10.38
2019-03-08T00:42:08.234Z,10.33
2019-03-08T00:43:08.296Z,10.36
2019-03-08T00:44:08.280Z,10.33
2019-03-08T00:45:08.327Z,10.15
2019-03-08T00:46:08.326Z,10.21
2019-03-08T00:47:08.356Z,10.25
2019-03-08T00:48:08.364Z,10.25
2019-03-08T00:49:08.392Z,10.21
2019-03-08T00:50:08.417Z,10.18
2019-03-08T00:51:08.431Z,10.20
2019-03-08T00:52:08.454Z,10.23
2019-03-08T00:53:08.512Z,10.30
2019-03-08T00:54:08.505Z,10.20
2019-03-08T00:55:08.528Z,10.13
2019-03-08T00:56:08.559Z,10.17
2019-03-08T00:57:08.568Z,10.17
2019-03-08T00:58:08.596Z,10.13
2019-03-08T00:59:08.609Z,10.13
2019-03-08T01:00:08.637Z,10.13
2019-03-08T01:01:08.662Z,10.00
2019-03-08T01:02:08.680Z,10.00
2019-03-08T01:03:08.702Z,10.12
2019-03-08T01:04:08.720Z,10.09
2019-03-08T01:05:08.740Z,10.09
2019-03-08T01:06:08.768Z,10.07
2019-03-08T01:07:08.788Z,10.02
2019-03-08T01:08:08.816Z,10.05
2019-03-08T01:09:08.870Z,10.03
2019-03-08T01:10:08.852Z,10.03
2019-03-08T01:11:08.873Z,10.00
2019-03-08T01:12:08.904Z,10.05
2019-03-08T01:13:08.916Z,10.09
2019-03-08T01:14:08.943Z,10.03
2019-03-08T01:15:08.964Z,9.95
2019-03-08T01:16:08.990Z,10.02
2019-03-08T01:17:09.006Z,10.05
2019-03-08T01:18:09.025Z,10.02
2019-03-08T01:19:09.051Z,10.00
2019-03-08T01:20:09.097Z,10.02
2019-03-08T01:21:09.089Z,9.97
2019-03-08T01:22:09.113Z,10.00
2019-03-08T01:23:09.143Z,10.03
2019-03-08T01:24:09.157Z,10.00
2019-03-08T01:25:09.179Z,9.99
2019-03-08T01:26:09.211Z,9.82
2019-03-08T01:27:09.235Z,9.84
2019-03-08T01:28:09.249Z,9.91
2019-03-08T01:29:09.274Z,9.99
2019-03-08T01:30:09.290Z,9.92
2019-03-08T01:31:09.318Z,10.00
2019-03-08T01:32:09.338Z,9.99
2019-03-08T01:33:09.363Z,9.95
2019-03-08T01:34:09.379Z,9.88
2019-03-08T01:35:09.400Z,9.94
2019-03-08T01:36:09.415Z,9.99
2019-03-08T01:37:09.448Z,9.95
2019-03-08T01:38:09.464Z,9.94
2019-03-08T01:39:09.493Z,10.00
2019-03-08T01:40:09.514Z,9.97
2019-03-08T01:41:09.528Z,10.03
2019-03-08T01:42:09.553Z,9.97
2019-03-08T01:43:09.579Z,9.99
2019-03-08T01:44:09.596Z,9.99
2019-03-08T01:45:09.621Z,10.02
2019-03-08T01:46:09.659Z,9.95
2019-03-08T01:47:09.667Z,9.92
2019-03-08T01:48:09.680Z,10.02
2019-03-08T01:49:09.705Z,10.02
2019-03-08T01:50:09.725Z,9.94
2019-03-08T01:51:09.753Z,9.99
2019-03-08T01:52:09.775Z,9.90
2019-03-08T01:53:09.800Z,10.03
2019-03-08T01:54:09.811Z,9.92
2019-03-08T01:55:09.834Z,10.00
2019-03-08T01:56:09.860Z,9.84
2019-03-08T01:57:09.881Z,9.87
2019-03-08T01:58:09.903Z,9.85
2019-03-08T01:59:09.925Z,9.84
2019-03-08T02:00:10.801Z,9.82
2019-03-08T02:01:09.971Z,9.85
2019-03-08T02:02:10.530Z,9.85
2019-03-08T02:03:10.008Z,9.88
2019-03-08T02:04:10.033Z,9.84
2019-03-08T02:05:10.056Z,9.84
2019-03-08T02:06:10.114Z,9.82
2019-03-08T02:07:10.101Z,9.87
2019-03-08T02:08:10.113Z,9.88
2019-03-08T02:09:10.142Z,9.92
2019-03-08T02:10:10.172Z,9.82
2019-03-08T02:11:10.182Z,9.88
2019-03-08T02:12:10.218Z,9.88
2019-03-08T02:13:10.239Z,9.84
2019-03-08T02:14:10.263Z,9.80
2019-03-08T02:15:10.269Z,9.94
2019-03-08T02:16:10.287Z,9.84
2019-03-08T02:17:10.329Z,9.85
2019-03-08T02:18:10.338Z,9.88
2019-03-08T02:19:10.361Z,9.91
2019-03-08T02:20:10.378Z,9.99
2019-03-08T02:21:10.399Z,9.99
2019-03-08T02:22:10.421Z,9.99
2019-03-08T02:23:10.465Z,9.88
2019-03-08T02:24:10.471Z,9.85
2019-03-08T02:25:10.485Z,9.88
2019-03-08T02:26:10.514Z,9.85
2019-03-08T02:27:10.536Z,9.87
2019-03-08T02:28:10.549Z,9.85
2019-03-08T02:29:10.577Z,9.87
2019-03-08T02:30:10.593Z,9.80
2019-03-08T02:31:10.624Z,9.87
2019-03-08T02:32:10.642Z,9.88
2019-03-08T02:33:10.682Z,9.90
2019-03-08T02:34:10.700Z,9.90
2019-03-08T02:35:10.714Z,9.87
2019-03-08T02:36:10.730Z,9.74
2019-03-08T02:37:10.755Z,9.84
2019-03-08T02:38:10.785Z,9.90
2019-03-08T02:39:10.798Z,9.84
2019-03-08T02:40:10.855Z,9.99
2019-03-08T02:41:10.838Z,9.85
2019-03-08T02:42:10.859Z,9.99
2019-03-08T02:43:10.881Z,9.99
2019-03-08T02:44:10.897Z,9.99
2019-03-08T02:45:10.929Z,9.91
2019-03-08T02:46:10.940Z,9.92
2019-03-08T02:47:10.975Z,9.97
2019-03-08T02:48:10.989Z,9.87
2019-03-08T02:49:11.011Z,9.90
2019-03-08T02:50:11.029Z,10.00
2019-03-08T02:51:11.059Z,10.00
2019-03-08T02:52:11.076Z,9.94
2019-03-08T02:53:11.098Z,10.02
2019-03-08T02:54:11.133Z,10.09
2019-03-08T02:55:11.142Z,10.00
2019-03-08T02:56:11.172Z,9.99
2019-03-08T02:57:11.186Z,9.97
2019-03-08T02:58:11.200Z,10.00
2019-03-08T02:59:11.234Z,9.92
2019-03-08T03:00:11.252Z,9.97
2019-03-08T03:01:11.280Z,9.99
2019-03-08T03:02:11.288Z,10.03
2019-03-08T03:03:11.318Z,9.95
2019-03-08T03:04:11.336Z,9.99
2019-03-08T03:05:11.923Z,9.97
2019-03-08T03:06:11.386Z,10.02
2019-03-08T03:07:11.401Z,10.12
2019-03-08T03:08:11.434Z,10.07
2019-03-08T03:09:11.444Z,10.05
2019-03-08T03:10:11.479Z,10.00
2019-03-08T03:11:11.499Z,10.02
2019-03-08T03:12:11.509Z,10.03
2019-03-08T03:13:11.558Z,10.06
2019-03-08T03:14:11.556Z,9.97
2019-03-08T03:15:11.585Z,10.07
2019-03-08T03:16:11.597Z,10.15
2019-03-08T03:17:11.626Z,10.02
2019-03-08T03:18:12.619Z,10.06
2019-03-08T03:19:11.656Z,9.99
2019-03-08T03:20:11.684Z,10.15
2019-03-08T03:21:11.713Z,10.00
2019-03-08T03:22:11.722Z,9.99
2019-03-08T03:23:11.745Z,10.05
2019-03-08T03:24:11.779Z,10.06
2019-03-08T03:25:11.806Z,10.13
2019-03-08T03:26:11.806Z,10.03
2019-03-08T03:27:11.839Z,10.00
2019-03-08T03:28:11.869Z,10.00
2019-03-08T03:29:11.873Z,9.99
2019-03-08T03:30:11.902Z,10.03
2019-03-08T03:31:11.929Z,10.03
2019-03-08T03:32:11.952Z,10.03
2019-03-08T03:33:11.980Z,10.03
2019-03-08T03:34:11.982Z,10.09
2019-03-08T03:35:12.021Z,10.09
2019-03-08T03:36:12.027Z,10.06
2019-03-08T03:37:12.055Z,10.12
2019-03-08T03:38:12.065Z,10.13
2019-03-08T03:39:12.918Z,10.13
2019-03-08T03:40:12.115Z,10.12
2019-03-08T03:41:12.136Z,10.12
2019-03-08T03:42:12.169Z,10.05
2019-03-08T03:43:12.179Z,10.13
2019-03-08T03:44:12.209Z,10.15
2019-03-08T03:45:12.219Z,10.09
2019-03-08T03:46:12.243Z,10.06
2019-03-08T03:47:12.263Z,10.05
2019-03-08T03:48:12.281Z,10.12
2019-03-08T03:49:12.306Z,10.05
2019-03-08T03:50:12.330Z,10.07
2019-03-08T03:51:12.360Z,10.03
2019-03-08T03:52:12.370Z,10.02
2019-03-08T03:53:12.394Z,10.06
2019-03-08T03:54:12.924Z,10.06
2019-03-08T03:55:12.455Z,10.02
2019-03-08T03:56:12.464Z,10.12
2019-03-08T03:57:12.480Z,10.18
2019-03-08T03:58:12.507Z,10.17
2019-03-08T03:59:12.524Z,10.12
2019-03-08T04:00:12.550Z,10.09
2019-03-08T04:01:12.565Z,10.15
2019-03-08T04:02:12.593Z,10.13
2019-03-08T04:03:12.613Z,10.15
2019-03-08T04:04:12.633Z,10.17
2019-03-08T04:05:12.666Z,10.13
2019-03-08T04:06:12.673Z,10.21
2019-03-08T04:07:12.706Z,10.23
2019-03-08T04:08:12.759Z,10.20
2019-03-08T04:09:12.765Z,10.17
2019-03-08T04:10:12.768Z,10.13
2019-03-08T04:11:12.787Z,10.18
2019-03-08T04:12:12.806Z,10.12
2019-03-08T04:13:12.833Z,10.23
2019-03-08T04:14:12.854Z,10.17
2019-03-08T04:15:12.868Z,10.21
2019-03-08T04:16:12.898Z,10.18
2019-03-08T04:17:12.919Z,10.21
2019-03-08T04:18:12.938Z,10.17
2019-03-08T04:19:12.988Z,10.21
2019-03-08T04:20:12.988Z,10.15
2019-03-08T04:21:12.998Z,10.25
2019-03-08T04:22:13.030Z,10.13
2019-03-08T04:23:13.044Z,10.18
2019-03-08T04:24:13.079Z,10.10
2019-03-08T04:25:13.094Z,10.20
2019-03-08T04:26:13.113Z,10.12
2019-03-08T04:27:13.131Z,10.21
2019-03-08T04:28:13.156Z,10.02
2019-03-08T04:29:13.173Z,10.15
2019-03-08T04:30:13.241Z,10.13
2019-03-08T04:31:13.225Z,10.18
2019-03-08T04:32:13.236Z,10.23
2019-03-08T04:33:13.261Z,10.18
2019-03-08T04:34:13.287Z,10.20
2019-03-08T04:35:13.311Z,10.20
2019-03-08T04:36:13.329Z,10.25
2019-03-08T04:37:13.358Z,10.15
2019-03-08T04:38:13.378Z,10.18
2019-03-08T04:39:13.405Z,10.38
2019-03-08T04:40:13.411Z,10.25
2019-03-08T04:41:13.443Z,10.33
2019-03-08T04:42:13.472Z,10.42
2019-03-08T04:43:13.475Z,10.41
2019-03-08T04:44:13.554Z,10.43
2019-03-08T04:45:13.524Z,10.36
2019-03-08T04:46:13.540Z,10.46
2019-03-08T04:47:13.583Z,10.28
2019-03-08T04:48:13.587Z,10.36
2019-03-08T04:49:13.651Z,10.38
2019-03-08T04:50:13.652Z,10.33
2019-03-08T04:51:13.656Z,10.36
2019-03-08T04:52:13.684Z,10.34
2019-03-08T04:53:13.696Z,10.36
2019-03-08T04:54:13.716Z,10.46
2019-03-08T04:55:13.739Z,10.43
2019-03-08T04:56:13.766Z,10.38
2019-03-08T04:57:13.789Z,10.43
2019-03-08T04:58:13.800Z,10.45
2019-03-08T04:59:13.825Z,10.43
2019-03-08T05:00:13.847Z,10.53
2019-03-08T05:01:13.870Z,10.49
2019-03-08T05:02:13.894Z,10.57
2019-03-08T05:03:13.927Z,10.48
2019-03-08T05:04:13.932Z,10.55
2019-03-08T05:05:13.965Z,10.48
2019-03-08T05:06:13.985Z,10.42
2019-03-08T05:07:14.004Z,10.51
2019-03-08T05:08:14.023Z,10.49
2019-03-08T05:09:14.044Z,10.53
2019-03-08T05:10:14.065Z,10.49
2019-03-08T05:11:14.088Z,10.46
2019-03-08T05:12:14.116Z,10.46
2019-03-08T05:13:14.134Z,10.46
2019-03-08T05:14:14.153Z,10.55
2019-03-08T05:15:14.178Z,10.43
2019-03-08T05:16:14.203Z,10.45
2019-03-08T05:17:14.234Z,10.48
2019-03-08T05:18:14.242Z,10.46
2019-03-08T05:19:14.265Z,10.49
2019-03-08T05:20:14.291Z,10.53
2019-03-08T05:21:14.304Z,10.51
2019-03-08T05:22:14.330Z,10.61
2019-03-08T05:23:14.347Z,10.51
2019-03-08T05:24:14.383Z,10.61
2019-03-08T05:25:14.398Z,10.53
2019-03-08T05:26:14.412Z,10.48
2019-03-08T05:27:14.443Z,10.53
2019-03-08T05:28:14.461Z,10.51
2019-03-08T05:29:14.483Z,10.51
2019-03-08T05:30:14.501Z,10.49
2019-03-08T05:31:14.532Z,10.55
2019-03-08T05:32:14.545Z,10.48
2019-03-08T05:33:14.565Z,10.51
2019-03-08T05:34:14.587Z,10.53
2019-03-08T05:35:14.611Z,10.62
2019-03-08T05:36:14.633Z,10.48
2019-03-08T05:37:14.657Z,10.55
2019-03-08T05:38:14.707Z,10.49
2019-03-08T05:39:14.701Z,10.57
2019-03-08T05:40:14.724Z,10.55
2019-03-08T05:41:14.739Z,10.58
2019-03-08T05:42:14.760Z,10.55
2019-03-08T05:43:14.787Z,10.53
2019-03-08T05:44:14.812Z,10.45
2019-03-08T05:45:14.842Z,10.58
2019-03-08T05:46:14.848Z,10.51
2019-03-08T05:47:14.876Z,10.51
2019-03-08T05:48:14.899Z,10.53
2019-03-08T05:49:14.920Z,10.53
2019-03-08T05:50:14.935Z,10.53
2019-03-08T05:51:14.972Z,10.57
2019-03-08T05:52:14.978Z,10.64
2019-03-08T05:53:15.000Z,10.64
2019-03-08T05:54:15.018Z,10.58
2019-03-08T05:55:15.060Z,10.79
2019-03-08T05:56:15.071Z,10.84
2019-03-08T05:57:15.093Z,10.83
2019-03-08T05:58:15.112Z,10.86
2019-03-08T05:59:15.141Z,10.80
2019-03-08T06:00:15.158Z,10.89
2019-03-08T06:01:15.180Z,10.94
2019-03-08T06:02:15.209Z,10.71
2019-03-08T06:03:15.258Z,10.76
2019-03-08T06:04:15.274Z,10.79
2019-03-08T06:05:15.289Z,10.90
2019-03-08T06:06:15.295Z,10.97
2019-03-08T06:07:15.327Z,10.90
2019-03-08T06:08:15.337Z,10.87
2019-03-08T06:09:15.376Z,10.98
2019-03-08T06:10:15.404Z,11.01
2019-03-08T06:11:15.391Z,10.77
2019-03-08T06:12:15.420Z,10.76
2019-03-08T06:13:15.466Z,10.83
2019-03-08T06:14:15.469Z,10.79
2019-03-08T06:15:15.484Z,10.98
2019-03-08T06:16:16.442Z,10.90
2019-03-08T06:17:15.532Z,10.87
2019-03-08T06:18:15.551Z,10.79
2019-03-08T06:19:15.589Z,10.82
2019-03-08T06:20:15.630Z,10.86
2019-03-08T06:21:15.626Z,10.76
2019-03-08T06:22:15.636Z,10.84
2019-03-08T06:23:15.687Z,10.79
2019-03-08T06:24:15.685Z,11.04
2019-03-08T06:25:15.709Z,10.86
2019-03-08T06:26:15.734Z,10.98
2019-03-08T06:27:15.756Z,10.98
2019-03-08T06:28:15.767Z,10.89
2019-03-08T06:29:15.791Z,10.86
2019-03-08T06:30:15.816Z,10.79
2019-03-08T06:31:15.842Z,10.79
2019-03-08T06:32:15.873Z,10.84
2019-03-08T06:33:15.879Z,10.84
2019-03-08T06:34:15.913Z,11.04
2019-03-08T06:35:15.924Z,11.07
2019-03-08T06:36:15.950Z,10.87
2019-03-08T06:37:15.974Z,10.92
2019-03-08T06:38:16.058Z,10.84
2019-03-08T06:39:16.014Z,11.16
2019-03-08T06:40:16.036Z,11.15
2019-03-08T06:41:16.060Z,11.08
2019-03-08T06:42:16.079Z,11.00
2019-03-08T06:43:16.102Z,11.00
2019-03-08T06:44:16.130Z,10.95
2019-03-08T06:45:16.745Z,11.08
2019-03-08T06:46:16.165Z,11.02
2019-03-08T06:47:16.204Z,11.15
2019-03-08T06:48:16.214Z,11.13
2019-03-08T06:49:16.251Z,11.16
2019-03-08T06:50:16.260Z,11.16
2019-03-08T06:51:16.281Z,11.13
2019-03-08T06:52:16.305Z,11.19
2019-03-08T06:53:16.327Z,11.19
2019-03-08T06:54:16.349Z,11.15
2019-03-08T06:55:16.369Z,11.16
2019-03-08T06:56:16.387Z,11.20
2019-03-08T06:57:16.405Z,11.08
2019-03-08T06:58:16.434Z,11.16
2019-03-08T06:59:16.454Z,11.08
2019-03-08T07:00:16.483Z,11.15
2019-03-08T07:01:16.498Z,11.13
2019-03-08T07:02:16.517Z,11.00
2019-03-08T07:03:16.550Z,10.98
2019-03-08T07:04:16.564Z,10.92
2019-03-08T07:05:16.599Z,11.19
2019-03-08T07:06:16.603Z,11.08
2019-03-08T07:07:16.667Z,10.94
2019-03-08T07:08:16.650Z,10.95
2019-03-08T07:09:16.680Z,11.02
2019-03-08T07:10:16.701Z,10.97
2019-03-08T07:11:16.716Z,10.90
2019-03-08T07:12:16.752Z,10.92
2019-03-08T07:13:16.763Z,10.84
2019-03-08T07:14:16.785Z,10.98
2019-03-08T07:15:16.803Z,10.92
2019-03-08T07:16:16.835Z,11.00
2019-03-08T07:17:16.851Z,10.79
2019-03-08T07:18:16.871Z,10.87
2019-03-08T07:19:16.898Z,10.89
2019-03-08T07:20:16.930Z,10.86
2019-03-08T07:21:16.935Z,10.89
2019-03-08T07:22:16.961Z,10.83
2019-03-08T07:23:16.978Z,10.89
2019-03-08T07:24:17.005Z,10.87
2019-03-08T07:25:17.040Z,10.89
2019-03-08T07:26:17.046Z,10.86
2019-03-08T07:27:17.078Z,10.83
2019-03-08T07:28:17.151Z,10.89
2019-03-08T07:29:17.122Z,10.92
2019-03-08T07:30:17.138Z,10.94
2019-03-08T07:31:17.167Z,10.87
2019-03-08T07:32:17.640Z,10.89
2019-03-08T07:33:17.210Z,10.89
2019-03-08T07:34:17.221Z,10.98
2019-03-08T07:35:17.258Z,10.90
2019-03-08T07:36:17.296Z,10.97
2019-03-08T07:37:17.287Z,10.97
2019-03-08T07:38:17.316Z,10.94
2019-03-08T07:39:17.344Z,10.92
2019-03-08T07:40:17.352Z,10.87
2019-03-08T07:41:17.374Z,11.00
2019-03-08T07:42:17.394Z,10.89
2019-03-08T07:43:17.432Z,11.00
2019-03-08T07:44:17.445Z,11.00
2019-03-08T07:45:17.463Z,10.92
2019-03-08T07:46:17.495Z,10.95
2019-03-08T07:47:17.511Z,10.92
2019-03-08T07:48:17.529Z,10.95
2019-03-08T07:49:17.555Z,10.95
2019-03-08T07:50:17.582Z,10.97
2019-03-08T07:51:17.604Z,10.90
2019-03-08T07:52:17.618Z,10.94
2019-03-08T07:53:17.651Z,10.87
2019-03-08T07:54:17.682Z,10.94
2019-03-08T07:55:17.700Z,11.00
2019-03-08T07:56:17.710Z,11.01
2019-03-08T07:57:17.743Z,11.08
2019-03-08T07:58:17.765Z,11.02
2019-03-08T07:59:17.770Z,10.97
2019-03-08T08:00:17.798Z,10.92
2019-03-08T08:01:17.827Z,10.98
2019-03-08T08:02:17.844Z,11.02
2019-03-08T08:03:17.866Z,11.00
2019-03-08T08:04:17.889Z,11.00
2019-03-08T08:05:17.915Z,10.98
2019-03-08T08:06:17.932Z,10.98
2019-03-08T08:07:17.963Z,10.97
2019-03-08T08:08:17.978Z,11.00
2019-03-08T08:09:18.053Z,11.08
2019-03-08T08:10:18.021Z,11.07
2019-03-08T08:11:18.062Z,11.12
2019-03-08T08:12:18.063Z,11.10
2019-03-08T08:13:18.092Z,11.05
2019-03-08T08:14:18.150Z,11.07
2019-03-08T08:15:18.130Z,11.10
2019-03-08T08:16:18.154Z,11.10
2019-03-08T08:17:18.199Z,11.13
2019-03-08T08:18:18.227Z,11.07
2019-03-08T08:19:18.223Z,11.08
2019-03-08T08:20:18.250Z,11.16
2019-03-08T08:21:18.263Z,11.16
2019-03-08T08:22:18.284Z,11.05
2019-03-08T08:23:18.301Z,11.05
2019-03-08T08:24:18.340Z,11.10
2019-03-08T08:25:18.375Z,11.07
2019-03-08T08:26:18.418Z,11.20
2019-03-08T08:27:18.406Z,11.16
2019-03-08T08:28:18.421Z,11.08
2019-03-08T08:29:18.464Z,11.16
2019-03-08T08:30:18.467Z,11.04
2019-03-08T08:31:18.486Z,11.04
2019-03-08T08:32:18.542Z,11.08
2019-03-08T08:33:18.533Z,11.08
2019-03-08T08:34:18.569Z,11.05
2019-03-08T08:35:18.570Z,11.05
2019-03-08T08:36:18.591Z,11.10
2019-03-08T08:37:18.619Z,10.98
2019-03-08T08:38:18.645Z,11.02
2019-03-08T08:39:18.669Z,11.13
2019-03-08T08:40:18.687Z,11.05
2019-03-08T08:41:18.712Z,11.02
2019-03-08T08:42:18.795Z,11.10
2019-03-08T08:43:18.777Z,11.13
2019-03-08T08:44:18.774Z,11.08
2019-03-08T08:45:18.815Z,11.15
2019-03-08T08:46:18.822Z,11.10
2019-03-08T08:47:18.836Z,11.05
2019-03-08T08:48:18.908Z,11.05
2019-03-08T08:49:18.885Z,11.07
2019-03-08T08:50:18.904Z,11.08
2019-03-08T08:51:18.928Z,11.08
2019-03-08T08:52:18.956Z,10.98
2019-03-08T08:53:18.970Z,10.97
2019-03-08T08:54:19.010Z,11.07
2019-03-08T08:55:19.015Z,11.02
2019-03-08T08:56:19.035Z,11.01
2019-03-08T08:57:19.069Z,11.08
2019-03-08T08:58:19.089Z,11.02
2019-03-08T09:00:19.157Z,11.07
2019-03-08T09:01:19.154Z,11.08
2019-03-08T09:02:19.176Z,11.00
2019-03-08T09:04:19.217Z,10.98
2019-03-08T09:05:19.251Z,10.98
2019-03-08T09:06:19.259Z,11.01
2019-03-08T09:07:19.287Z,11.02
2019-03-08T09:08:19.311Z,11.01
2019-03-08T09:09:19.333Z,10.97
2019-03-08T09:10:19.354Z,11.01
2019-03-08T09:11:19.373Z,11.00
2019-03-08T09:12:19.422Z,11.00
2019-03-08T09:13:19.415Z,11.02
2019-03-08T09:14:19.446Z,10.94
2019-03-08T09:16:19.528Z,10.98
2019-03-08T09:17:19.553Z,11.00
2019-03-08T09:18:19.649Z,10.98
2019-03-08T09:19:19.601Z,10.97
2019-03-08T09:20:19.636Z,11.00
2019-03-08T09:21:19.655Z,11.05
2019-03-08T09:22:40.683Z,11.05
2019-03-08T09:23:19.690Z,11.07
2019-03-08T09:24:19.696Z,10.98
2019-03-08T09:25:19.738Z,11.00
2019-03-08T09:26:19.804Z,10.97
2019-03-08T09:27:19.763Z,10.98
2019-03-08T09:28:40.805Z,10.92
2019-03-08T09:29:19.912Z,11.02
2019-03-08T09:30:19.796Z,11.05
2019-03-08T09:31:19.820Z,11.08
2019-03-08T09:32:19.837Z,10.90
2019-03-08T09:33:19.860Z,10.98
2019-03-08T09:34:19.885Z,10.98
2019-03-08T09:35:19.905Z,10.90
2019-03-08T09:36:19.926Z,10.95
2019-03-08T09:37:19.951Z,10.92
2019-03-08T09:38:19.970Z,10.87
2019-03-08T09:39:19.993Z,10.86
2019-03-08T09:40:20.018Z,10.67
2019-03-08T09:41:20.037Z,10.80
2019-03-08T09:42:20.055Z,10.77
2019-03-08T09:43:20.081Z,10.76
2019-03-08T09:44:20.106Z,10.76
2019-03-08T09:45:20.132Z,10.76
2019-03-08T09:46:20.150Z,10.79
2019-03-08T09:47:20.168Z,10.62
2019-03-08T09:48:20.193Z,10.71
2019-03-08T09:49:20.219Z,10.76
2019-03-08T09:50:20.232Z,10.67
2019-03-08T09:51:20.257Z,10.80
2019-03-08T09:52:20.280Z,10.76
2019-03-08T09:53:20.308Z,10.71
2019-03-08T09:54:20.325Z,10.69
2019-03-08T09:55:20.348Z,10.75
2019-03-08T09:56:20.381Z,10.77
2019-03-08T09:57:20.389Z,10.76
2019-03-08T09:58:20.419Z,10.67
2019-03-08T09:59:20.434Z,10.68
2019-03-08T10:00:20.461Z,10.68
2019-03-08T10:01:20.479Z,10.65
2019-03-08T10:02:20.499Z,10.55
2019-03-08T10:03:20.530Z,10.57
2019-03-08T10:04:20.545Z,10.51
2019-03-08T10:05:20.574Z,10.49
2019-03-08T10:06:20.589Z,10.48
2019-03-08T10:07:20.613Z,10.53
2019-03-08T10:08:20.631Z,10.57
2019-03-08T10:09:20.656Z,10.42
2019-03-08T10:10:20.678Z,10.39
2019-03-08T10:11:20.698Z,10.41
2019-03-08T10:12:20.729Z,10.36
2019-03-08T10:13:20.739Z,10.51
2019-03-08T10:14:20.760Z,10.53
2019-03-08T10:15:20.790Z,10.48
2019-03-08T10:16:20.812Z,10.42
2019-03-08T10:17:20.853Z,10.53
2019-03-08T10:18:20.860Z,10.45
2019-03-08T10:19:20.884Z,10.58
2019-03-08T10:20:20.914Z,10.57
2019-03-08T10:21:20.922Z,10.53
2019-03-08T10:22:20.948Z,10.53
2019-03-08T10:23:20.970Z,10.64
2019-03-08T10:24:20.993Z,10.62
2019-03-08T10:25:21.007Z,10.68
2019-03-08T10:26:21.033Z,10.59
2019-03-08T10:27:21.055Z,10.53
2019-03-08T10:28:21.079Z,10.53
2019-03-08T10:29:21.093Z,10.48
2019-03-08T10:30:21.117Z,10.51
2019-03-08T10:31:21.142Z,10.57
2019-03-08T10:32:21.164Z,10.51
2019-03-08T10:33:21.190Z,10.39
2019-03-08T10:34:21.214Z,10.48
2019-03-08T10:35:24.062Z,10.53
2019-03-08T10:36:21.254Z,10.51
2019-03-08T10:37:21.285Z,10.49
2019-03-08T10:38:22.970Z,10.64
2019-03-08T10:39:21.316Z,10.62
2019-03-08T10:40:21.339Z,10.82
2019-03-08T10:41:21.357Z,10.79
2019-03-08T10:42:21.385Z,10.80
2019-03-08T10:43:21.404Z,10.79
2019-03-08T10:44:21.438Z,10.80
2019-03-08T10:45:21.454Z,10.69
2019-03-08T10:46:21.481Z,10.79
2019-03-08T10:47:21.492Z,10.94
2019-03-08T10:48:21.522Z,10.98
2019-03-08T10:49:21.540Z,11.19
2019-03-08T10:50:21.562Z,11.07
2019-03-08T10:51:21.589Z,11.19
2019-03-08T10:52:21.657Z,11.16
2019-03-08T10:53:21.638Z,11.16
2019-03-08T10:54:21.674Z,11.15
2019-03-08T10:55:21.692Z,11.18
2019-03-08T10:56:21.697Z,11.23
2019-03-08T10:57:21.712Z,11.18
2019-03-08T10:58:21.744Z,11.13
2019-03-08T10:59:21.767Z,11.22
2019-03-08T11:00:21.790Z,11.13
2019-03-08T11:01:21.823Z,11.25
2019-03-08T11:02:21.877Z,11.26
2019-03-08T11:03:21.857Z,11.37
2019-03-08T11:04:21.875Z,11.41
2019-03-08T11:05:21.931Z,11.40
2019-03-08T11:06:21.924Z,11.25
2019-03-08T11:07:21.944Z,11.07
2019-03-08T11:08:29.558Z,10.87
2019-03-08T11:09:21.992Z,10.94
2019-03-08T11:10:22.060Z,10.89
2019-03-08T11:11:22.050Z,10.86
2019-03-08T11:12:22.084Z,10.67
2019-03-08T11:13:22.102Z,10.55
2019-03-08T11:14:22.110Z,10.24
2019-03-08T11:15:24.652Z,9.88
2019-03-08T11:16:22.163Z,9.73
2019-03-08T11:17:22.190Z,9.67
2019-03-08T11:18:22.204Z,9.76
2019-03-08T11:19:22.220Z,9.72
2019-03-08T11:20:22.242Z,9.70
2019-03-08T11:21:22.267Z,9.64
2019-03-08T11:22:22.284Z,9.58
2019-03-08T11:23:22.314Z,9.58
2019-03-08T11:24:22.345Z,9.47
2019-03-08T11:25:22.351Z,9.51
2019-03-08T11:26:22.377Z,9.49
2019-03-08T11:27:22.399Z,9.33
2019-03-08T11:28:22.430Z,9.31
2019-03-08T11:29:22.446Z,9.49
2019-03-08T11:30:22.466Z,9.51
2019-03-08T11:31:22.493Z,9.42
2019-03-08T11:32:23.432Z,9.36
2019-03-08T11:33:22.529Z,9.39
2019-03-08T11:34:22.556Z,9.42
2019-03-08T11:35:22.580Z,9.44
2019-03-08T11:36:22.594Z,9.54
2019-03-08T11:37:22.623Z,9.59
2019-03-08T11:38:22.812Z,9.72
2019-03-08T11:39:22.658Z,9.80
2019-03-08T11:40:22.686Z,9.72
2019-03-08T11:41:22.702Z,9.55
2019-03-08T11:42:22.725Z,9.55
2019-03-08T11:43:22.749Z,9.52
2019-03-08T11:44:22.773Z,9.52
2019-03-08T11:45:22.799Z,9.51
2019-03-08T11:46:22.818Z,9.42
2019-03-08T11:47:22.838Z,9.33
2019-03-08T11:48:22.889Z,9.37
2019-03-08T11:49:22.885Z,9.29
2019-03-08T11:50:22.896Z,9.33
2019-03-08T11:51:22.921Z,9.26
2019-03-08T11:52:22.947Z,9.29
2019-03-08T11:53:22.989Z,9.26
2019-03-08T11:54:22.999Z,9.15
2019-03-08T11:55:23.055Z,9.24
2019-03-08T11:56:23.035Z,9.40
2019-03-08T11:57:23.055Z,9.70
2019-03-08T11:58:23.068Z,10.24
2019-03-08T11:59:23.099Z,10.57
2019-03-08T12:00:23.121Z,10.71
2019-03-08T12:01:23.155Z,10.79
2019-03-08T12:02:23.160Z,11.22
2019-03-08T12:03:23.197Z,11.89
2019-03-08T12:04:23.216Z,12.26
2019-03-08T12:05:23.238Z,12.54
2019-03-08T12:06:23.264Z,12.80
2019-03-08T12:07:23.282Z,12.80
2019-03-08T12:08:23.303Z,12.87
2019-03-08T12:09:23.330Z,12.84
2019-03-08T12:10:23.356Z,12.88
2019-03-08T12:11:23.378Z,13.16
2019-03-08T12:12:23.403Z,13.62
2019-03-08T12:13:23.432Z,13.91
2019-03-08T12:14:25.949Z,13.68
2019-03-08T12:15:23.492Z,13.40
2019-03-08T12:16:23.506Z,13.75
2019-03-08T12:17:23.540Z,14.19
2019-03-08T12:18:23.566Z,14.53
2019-03-08T12:19:23.595Z,14.82
2019-03-08T12:20:23.627Z,14.73
2019-03-08T12:21:23.657Z,14.19
2019-03-08T12:22:23.685Z,13.86
2019-03-08T12:23:23.706Z,13.16
2019-03-08T12:24:23.726Z,12.98
2019-03-08T12:25:23.765Z,12.63
2019-03-08T12:26:23.781Z,12.29
2019-03-08T12:27:23.821Z,12.28
2019-03-08T12:28:23.839Z,12.36
2019-03-08T12:29:23.870Z,12.30
2019-03-08T12:30:23.899Z,12.10
2019-03-08T12:31:23.934Z,12.07
2019-03-08T12:32:23.960Z,11.99
2019-03-08T12:33:23.982Z,11.97
2019-03-08T12:34:24.008Z,11.91
2019-03-08T12:35:24.038Z,12.05
2019-03-08T12:36:24.058Z,11.86
2019-03-08T12:37:24.086Z,12.02
2019-03-08T12:38:24.117Z,11.85
2019-03-08T12:39:24.132Z,11.62
2019-03-08T12:40:24.167Z,11.44
2019-03-08T12:41:24.186Z,11.43
2019-03-08T12:42:24.213Z,11.52
2019-03-08T12:43:24.243Z,11.56
2019-03-08T12:44:24.263Z,11.62
2019-03-08T12:45:24.289Z,11.62
2019-03-08T12:46:24.313Z,11.60
2019-03-08T12:47:24.335Z,11.43
2019-03-08T12:48:24.371Z,11.25
2019-03-08T12:49:24.393Z,11.31
2019-03-08T12:50:24.405Z,11.43
2019-03-08T12:51:24.435Z,11.30
2019-03-08T12:52:24.461Z,11.16
2019-03-08T12:53:24.505Z,11.34
2019-03-08T12:54:24.507Z,11.16
2019-03-08T12:55:24.537Z,11.23
2019-03-08T12:56:24.552Z,11.15
2019-03-08T12:57:24.579Z,11.13
2019-03-08T12:58:24.595Z,11.04
2019-03-08T12:59:24.625Z,11.07
2019-03-08T13:00:24.644Z,11.04